sensor_id;sensor_type;location;lat;lon;timestamp;P1;durP1;ratioP1;P2;durP2;ratioP2
18677;SDS011;9469;51.114;13.914;2024-02-28T00:00:28;57.53;;;27.10;;
18677;SDS011;9469;51.114;13.914;2024-02-28T00:05:36;81.10;;;26.97;;
18677;SDS011;9469;51.114;13.914;2024-02-28T00:10:41;60.17;;;27.87;;
18677;SDS011;9469;51.114;13.914;2024-02-28T00:15:46;60.90;;;25.97;;
18677;SDS011;9469;51.114;13.914;2024-02-28T00:20:54;55.40;;;26.40;;
18677;SDS011;9469;51.114;13.914;2024-02-28T00:26:00;67.67;;;24.90;;
18677;SDS011;9469;51.114;13.914;2024-02-28T00:31:05;46.50;;;23.47;;
18677;SDS011;9469;51.114;13.914;2024-02-28T00:36:13;38.90;;;22.20;;
18677;SDS011;9469;51.114;13.914;2024-02-28T00:41:19;54.93;;;24.33;;
18677;SDS011;9469;51.114;13.914;2024-02-28T00:46:25;46.23;;;22.73;;
18677;SDS011;9469;51.114;13.914;2024-02-28T00:51:32;36.20;;;21.67;;
18677;SDS011;9469;51.114;13.914;2024-02-28T00:56:40;36.63;;;21.03;;
18677;SDS011;9469;51.114;13.914;2024-02-28T01:01:48;41.33;;;22.10;;
18677;SDS011;9469;51.114;13.914;2024-02-28T01:06:56;35.83;;;19.93;;
18677;SDS011;9469;51.114;13.914;2024-02-28T01:12:01;30.00;;;19.77;;
18677;SDS011;9469;51.114;13.914;2024-02-28T01:17:06;27.83;;;18.77;;
18677;SDS011;9469;51.114;13.914;2024-02-28T01:22:17;26.83;;;17.53;;
18677;SDS011;9469;51.114;13.914;2024-02-28T01:27:23;32.23;;;18.53;;
18677;SDS011;9469;51.114;13.914;2024-02-28T01:32:28;30.07;;;18.73;;
18677;SDS011;9469;51.114;13.914;2024-02-28T01:37:36;39.20;;;20.10;;
18677;SDS011;9469;51.114;13.914;2024-02-28T01:42:41;37.80;;;18.90;;
18677;SDS011;9469;51.114;13.914;2024-02-28T01:47:47;34.30;;;19.23;;
18677;SDS011;9469;51.114;13.914;2024-02-28T01:52:56;39.23;;;20.43;;
18677;SDS011;9469;51.114;13.914;2024-02-28T01:58:02;33.57;;;18.47;;
18677;SDS011;9469;51.114;13.914;2024-02-28T02:03:09;34.60;;;19.47;;
18677;SDS011;9469;51.114;13.914;2024-02-28T02:08:17;47.63;;;20.60;;
18677;SDS011;9469;51.114;13.914;2024-02-28T02:13:22;61.37;;;20.93;;
18677;SDS011;9469;51.114;13.914;2024-02-28T02:18:27;68.63;;;21.63;;
18677;SDS011;9469;51.114;13.914;2024-02-28T02:23:35;71.10;;;22.10;;
18677;SDS011;9469;51.114;13.914;2024-02-28T02:28:43;52.83;;;20.83;;
18677;SDS011;9469;51.114;13.914;2024-02-28T02:33:51;76.93;;;22.93;;
18677;SDS011;9469;51.114;13.914;2024-02-28T02:38:59;79.80;;;23.47;;
18677;SDS011;9469;51.114;13.914;2024-02-28T02:44:05;51.90;;;21.23;;
18677;SDS011;9469;51.114;13.914;2024-02-28T02:49:10;93.83;;;22.57;;
18677;SDS011;9469;51.114;13.914;2024-02-28T02:54:17;46.70;;;19.93;;
18677;SDS011;9469;51.114;13.914;2024-02-28T02:59:23;67.33;;;19.77;;
18677;SDS011;9469;51.114;13.914;2024-02-28T03:04:28;40.37;;;19.63;;
18677;SDS011;9469;51.114;13.914;2024-02-28T03:09:36;47.67;;;19.13;;
18677;SDS011;9469;51.114;13.914;2024-02-28T03:14:41;56.57;;;21.77;;
18677;SDS011;9469;51.114;13.914;2024-02-28T03:19:47;59.90;;;19.87;;
18677;SDS011;9469;51.114;13.914;2024-02-28T03:24:54;81.73;;;23.10;;
18677;SDS011;9469;51.114;13.914;2024-02-28T03:29:59;57.40;;;21.97;;
18677;SDS011;9469;51.114;13.914;2024-02-28T03:35:05;50.17;;;22.60;;
18677;SDS011;9469;51.114;13.914;2024-02-28T03:40:14;53.53;;;22.67;;
18677;SDS011;9469;51.114;13.914;2024-02-28T03:45:19;47.77;;;22.97;;
18677;SDS011;9469;51.114;13.914;2024-02-28T03:50:25;50.83;;;23.87;;
18677;SDS011;9469;51.114;13.914;2024-02-28T03:55:35;49.37;;;20.47;;
18677;SDS011;9469;51.114;13.914;2024-02-28T04:00:40;68.07;;;20.20;;
18677;SDS011;9469;51.114;13.914;2024-02-28T04:05:46;48.77;;;18.37;;
18677;SDS011;9469;51.114;13.914;2024-02-28T04:10:54;34.90;;;15.67;;
18677;SDS011;9469;51.114;13.914;2024-02-28T04:15:59;25.10;;;15.53;;
18677;SDS011;9469;51.114;13.914;2024-02-28T04:21:05;30.77;;;15.40;;
18677;SDS011;9469;51.114;13.914;2024-02-28T04:26:12;20.80;;;13.80;;
18677;SDS011;9469;51.114;13.914;2024-02-28T04:31:17;22.37;;;13.40;;
18677;SDS011;9469;51.114;13.914;2024-02-28T04:36:23;27.57;;;12.67;;
18677;SDS011;9469;51.114;13.914;2024-02-28T04:41:34;24.30;;;12.47;;
18677;SDS011;9469;51.114;13.914;2024-02-28T04:46:39;22.47;;;13.37;;
18677;SDS011;9469;51.114;13.914;2024-02-28T04:51:44;19.77;;;12.43;;
18677;SDS011;9469;51.114;13.914;2024-02-28T04:56:53;21.07;;;12.17;;
18677;SDS011;9469;51.114;13.914;2024-02-28T05:01:58;21.43;;;13.07;;
18677;SDS011;9469;51.114;13.914;2024-02-28T05:07:05;24.57;;;12.67;;
18677;SDS011;9469;51.114;13.914;2024-02-28T05:12:13;30.23;;;13.07;;
18677;SDS011;9469;51.114;13.914;2024-02-28T05:17:19;32.53;;;14.20;;
18677;SDS011;9469;51.114;13.914;2024-02-28T05:22:24;34.97;;;15.03;;
18677;SDS011;9469;51.114;13.914;2024-02-28T05:27:32;36.47;;;15.17;;
18677;SDS011;9469;51.114;13.914;2024-02-28T05:32:40;28.60;;;14.27;;
18677;SDS011;9469;51.114;13.914;2024-02-28T05:37:45;25.97;;;14.27;;
18677;SDS011;9469;51.114;13.914;2024-02-28T05:42:53;28.07;;;14.70;;
18677;SDS011;9469;51.114;13.914;2024-02-28T05:47:59;35.33;;;13.90;;
18677;SDS011;9469;51.114;13.914;2024-02-28T05:53:04;31.40;;;15.03;;
18677;SDS011;9469;51.114;13.914;2024-02-28T05:58:11;31.87;;;14.60;;
18677;SDS011;9469;51.114;13.914;2024-02-28T06:03:17;36.90;;;13.23;;
18677;SDS011;9469;51.114;13.914;2024-02-28T06:08:23;31.20;;;14.13;;
18677;SDS011;9469;51.114;13.914;2024-02-28T06:13:33;28.70;;;14.13;;
18677;SDS011;9469;51.114;13.914;2024-02-28T06:18:40;33.83;;;14.20;;
18677;SDS011;9469;51.114;13.914;2024-02-28T06:23:45;35.80;;;14.97;;
18677;SDS011;9469;51.114;13.914;2024-02-28T06:28:56;42.03;;;16.13;;
18677;SDS011;9469;51.114;13.914;2024-02-28T06:34:03;63.73;;;15.63;;
18677;SDS011;9469;51.114;13.914;2024-02-28T06:39:10;51.63;;;16.47;;
18677;SDS011;9469;51.114;13.914;2024-02-28T06:44:18;43.57;;;17.77;;
18677;SDS011;9469;51.114;13.914;2024-02-28T06:49:38;58.60;;;17.50;;
18677;SDS011;9469;51.114;13.914;2024-02-28T06:55:07;43.93;;;17.50;;
18677;SDS011;9469;51.114;13.914;2024-02-28T07:00:19;67.43;;;19.40;;
18677;SDS011;9469;51.114;13.914;2024-02-28T07:05:50;54.67;;;18.93;;
18677;SDS011;9469;51.114;13.914;2024-02-28T07:10:56;69.30;;;18.97;;
18677;SDS011;9469;51.114;13.914;2024-02-28T07:16:10;39.73;;;18.40;;
18677;SDS011;9469;51.114;13.914;2024-02-28T07:21:17;60.90;;;18.07;;
18677;SDS011;9469;51.114;13.914;2024-02-28T07:26:32;64.60;;;18.77;;
18677;SDS011;9469;51.114;13.914;2024-02-28T07:31:46;45.30;;;17.50;;
18677;SDS011;9469;51.114;13.914;2024-02-28T07:36:51;36.53;;;16.70;;
18677;SDS011;9469;51.114;13.914;2024-02-28T07:42:03;46.53;;;16.83;;
18677;SDS011;9469;51.114;13.914;2024-02-28T07:52:48;27.00;;;12.03;;
18677;SDS011;9469;51.114;13.914;2024-02-28T07:57:53;31.83;;;12.10;;
18677;SDS011;9469;51.114;13.914;2024-02-28T08:03:06;24.07;;;11.23;;
18677;SDS011;9469;51.114;13.914;2024-02-28T08:08:17;23.00;;;11.53;;
18677;SDS011;9469;51.114;13.914;2024-02-28T08:13:22;22.97;;;10.97;;
18677;SDS011;9469;51.114;13.914;2024-02-28T08:18:28;25.50;;;11.27;;
18677;SDS011;9469;51.114;13.914;2024-02-28T08:23:41;36.87;;;13.07;;
18677;SDS011;9469;51.114;13.914;2024-02-28T08:28:46;27.30;;;11.77;;
18677;SDS011;9469;51.114;13.914;2024-02-28T08:33:51;30.13;;;13.50;;
18677;SDS011;9469;51.114;13.914;2024-02-28T08:39:00;24.13;;;12.20;;
18677;SDS011;9469;51.114;13.914;2024-02-28T08:44:06;27.33;;;12.37;;
18677;SDS011;9469;51.114;13.914;2024-02-28T08:49:11;34.33;;;14.33;;
18677;SDS011;9469;51.114;13.914;2024-02-28T08:54:21;32.90;;;15.73;;
18677;SDS011;9469;51.114;13.914;2024-02-28T08:59:27;27.40;;;15.93;;
18677;SDS011;9469;51.114;13.914;2024-02-28T09:04:33;38.07;;;16.70;;
18677;SDS011;9469;51.114;13.914;2024-02-28T09:09:43;57.20;;;17.77;;
18677;SDS011;9469;51.114;13.914;2024-02-28T09:14:48;36.57;;;15.87;;
18677;SDS011;9469;51.114;13.914;2024-02-28T09:19:58;28.83;;;14.37;;
18677;SDS011;9469;51.114;13.914;2024-02-28T09:25:09;29.80;;;13.27;;
18677;SDS011;9469;51.114;13.914;2024-02-28T09:30:19;26.13;;;13.30;;
18677;SDS011;9469;51.114;13.914;2024-02-28T09:35:30;28.83;;;13.57;;
18677;SDS011;9469;51.114;13.914;2024-02-28T09:40:38;25.63;;;12.97;;
18677;SDS011;9469;51.114;13.914;2024-02-28T09:45:44;24.37;;;13.97;;
18677;SDS011;9469;51.114;13.914;2024-02-28T09:50:50;27.83;;;14.27;;
18677;SDS011;9469;51.114;13.914;2024-02-28T09:56:00;28.53;;;14.10;;
18677;SDS011;9469;51.114;13.914;2024-02-28T10:01:05;21.63;;;12.33;;
18677;SDS011;9469;51.114;13.914;2024-02-28T10:06:14;26.40;;;13.07;;
18677;SDS011;9469;51.114;13.914;2024-02-28T10:11:23;26.43;;;13.40;;
18677;SDS011;9469;51.114;13.914;2024-02-28T10:16:29;24.67;;;13.47;;
18677;SDS011;9469;51.114;13.914;2024-02-28T10:21:34;24.30;;;13.07;;
18677;SDS011;9469;51.114;13.914;2024-02-28T10:32:16;19.03;;;12.00;;
18677;SDS011;9469;51.114;13.914;2024-02-28T10:37:32;19.67;;;11.50;;
18677;SDS011;9469;51.114;13.914;2024-02-28T10:42:37;18.93;;;11.23;;
18677;SDS011;9469;51.114;13.914;2024-02-28T10:53:01;22.50;;;12.13;;
18677;SDS011;9469;51.114;13.914;2024-02-28T10:58:11;20.90;;;11.97;;
18677;SDS011;9469;51.114;13.914;2024-02-28T11:03:19;25.27;;;12.80;;
18677;SDS011;9469;51.114;13.914;2024-02-28T11:20:24;22.10;;;13.73;;
18677;SDS011;9469;51.114;13.914;2024-02-28T11:25:38;22.23;;;13.30;;
18677;SDS011;9469;51.114;13.914;2024-02-28T11:30:45;20.17;;;13.70;;
18677;SDS011;9469;51.114;13.914;2024-02-28T11:35:56;22.43;;;13.13;;
18677;SDS011;9469;51.114;13.914;2024-02-28T11:41:02;21.43;;;12.30;;
18677;SDS011;9469;51.114;13.914;2024-02-28T11:46:08;21.10;;;12.37;;
18677;SDS011;9469;51.114;13.914;2024-02-28T11:51:17;23.00;;;14.10;;
18677;SDS011;9469;51.114;13.914;2024-02-28T11:56:25;24.47;;;13.63;;
18677;SDS011;9469;51.114;13.914;2024-02-28T12:01:39;26.70;;;14.77;;
18677;SDS011;9469;51.114;13.914;2024-02-28T12:06:49;28.40;;;14.47;;
18677;SDS011;9469;51.114;13.914;2024-02-28T12:11:55;23.90;;;14.00;;
18677;SDS011;9469;51.114;13.914;2024-02-28T12:17:01;24.03;;;15.00;;
18677;SDS011;9469;51.114;13.914;2024-02-28T12:22:13;25.23;;;14.13;;
18677;SDS011;9469;51.114;13.914;2024-02-28T12:27:31;28.17;;;16.53;;
18677;SDS011;9469;51.114;13.914;2024-02-28T12:32:58;29.30;;;16.13;;
18677;SDS011;9469;51.114;13.914;2024-02-28T12:38:07;33.07;;;17.30;;
18677;SDS011;9469;51.114;13.914;2024-02-28T12:48:28;34.03;;;16.87;;
18677;SDS011;9469;51.114;13.914;2024-02-28T12:53:42;35.57;;;17.57;;
18677;SDS011;9469;51.114;13.914;2024-02-28T12:58:54;29.67;;;16.47;;
18677;SDS011;9469;51.114;13.914;2024-02-28T13:04:03;31.73;;;18.03;;
18677;SDS011;9469;51.114;13.914;2024-02-28T13:09:12;34.00;;;18.57;;
18677;SDS011;9469;51.114;13.914;2024-02-28T13:14:18;31.23;;;17.37;;
18677;SDS011;9469;51.114;13.914;2024-02-28T13:19:23;33.43;;;19.33;;
18677;SDS011;9469;51.114;13.914;2024-02-28T13:24:31;34.13;;;20.30;;
18677;SDS011;9469;51.114;13.914;2024-02-28T13:29:37;32.13;;;19.43;;
18677;SDS011;9469;51.114;13.914;2024-02-28T13:34:43;36.47;;;20.57;;
18677;SDS011;9469;51.114;13.914;2024-02-28T13:39:53;36.70;;;20.20;;
18677;SDS011;9469;51.114;13.914;2024-02-28T13:45:00;36.30;;;19.50;;
18677;SDS011;9469;51.114;13.914;2024-02-28T13:50:12;33.63;;;20.30;;
18677;SDS011;9469;51.114;13.914;2024-02-28T13:55:24;32.73;;;20.33;;
18677;SDS011;9469;51.114;13.914;2024-02-28T14:00:29;36.87;;;20.23;;
18677;SDS011;9469;51.114;13.914;2024-02-28T14:05:36;34.33;;;20.40;;
18677;SDS011;9469;51.114;13.914;2024-02-28T14:10:44;33.57;;;18.97;;
18677;SDS011;9469;51.114;13.914;2024-02-28T14:15:50;29.83;;;18.87;;
18677;SDS011;9469;51.114;13.914;2024-02-28T14:20:56;31.30;;;20.17;;
18677;SDS011;9469;51.114;13.914;2024-02-28T14:26:09;31.93;;;19.40;;
18677;SDS011;9469;51.114;13.914;2024-02-28T14:31:15;31.53;;;19.40;;
18677;SDS011;9469;51.114;13.914;2024-02-28T14:36:21;29.47;;;18.23;;
18677;SDS011;9469;51.114;13.914;2024-02-28T14:41:30;31.40;;;19.17;;
18677;SDS011;9469;51.114;13.914;2024-02-28T14:46:40;27.70;;;17.93;;
18677;SDS011;9469;51.114;13.914;2024-02-28T14:51:48;33.13;;;19.67;;
18677;SDS011;9469;51.114;13.914;2024-02-28T14:56:57;29.67;;;17.37;;
18677;SDS011;9469;51.114;13.914;2024-02-28T15:02:02;26.67;;;17.20;;
18677;SDS011;9469;51.114;13.914;2024-02-28T15:07:08;26.77;;;18.20;;
18677;SDS011;9469;51.114;13.914;2024-02-28T15:12:16;28.47;;;19.10;;
18677;SDS011;9469;51.114;13.914;2024-02-28T15:17:21;31.10;;;18.47;;
18677;SDS011;9469;51.114;13.914;2024-02-28T15:22:27;29.20;;;20.27;;
18677;SDS011;9469;51.114;13.914;2024-02-28T15:27:35;27.93;;;18.53;;
18677;SDS011;9469;51.114;13.914;2024-02-28T15:32:41;28.53;;;19.27;;
18677;SDS011;9469;51.114;13.914;2024-02-28T15:37:47;29.93;;;19.80;;
18677;SDS011;9469;51.114;13.914;2024-02-28T15:42:57;24.77;;;18.83;;
18677;SDS011;9469;51.114;13.914;2024-02-28T15:48:03;30.17;;;20.30;;
18677;SDS011;9469;51.114;13.914;2024-02-28T15:53:10;27.60;;;19.83;;
18677;SDS011;9469;51.114;13.914;2024-02-28T15:58:18;29.80;;;20.23;;
18677;SDS011;9469;51.114;13.914;2024-02-28T16:03:23;33.63;;;21.00;;
18677;SDS011;9469;51.114;13.914;2024-02-28T16:08:29;34.80;;;22.27;;
18677;SDS011;9469;51.114;13.914;2024-02-28T16:13:37;34.30;;;23.30;;
18677;SDS011;9469;51.114;13.914;2024-02-28T16:18:44;34.63;;;22.83;;
18677;SDS011;9469;51.114;13.914;2024-02-28T16:23:51;30.40;;;20.70;;
18677;SDS011;9469;51.114;13.914;2024-02-28T16:28:59;34.57;;;22.03;;
18677;SDS011;9469;51.114;13.914;2024-02-28T16:34:06;30.93;;;20.93;;
18677;SDS011;9469;51.114;13.914;2024-02-28T16:39:14;34.73;;;22.67;;
18677;SDS011;9469;51.114;13.914;2024-02-28T16:44:23;38.17;;;22.70;;
18677;SDS011;9469;51.114;13.914;2024-02-28T16:49:28;40.93;;;24.97;;
18677;SDS011;9469;51.114;13.914;2024-02-28T16:54:33;30.77;;;21.10;;
18677;SDS011;9469;51.114;13.914;2024-02-28T16:59:41;32.20;;;19.87;;
18677;SDS011;9469;51.114;13.914;2024-02-28T17:04:46;36.73;;;20.97;;
18677;SDS011;9469;51.114;13.914;2024-02-28T17:09:59;35.60;;;21.97;;
18677;SDS011;9469;51.114;13.914;2024-02-28T17:15:08;45.70;;;24.00;;
18677;SDS011;9469;51.114;13.914;2024-02-28T17:20:16;44.33;;;27.93;;
18677;SDS011;9469;51.114;13.914;2024-02-28T17:25:22;44.40;;;28.00;;
18677;SDS011;9469;51.114;13.914;2024-02-28T17:30:31;38.23;;;24.67;;
18677;SDS011;9469;51.114;13.914;2024-02-28T17:35:37;47.57;;;27.13;;
18677;SDS011;9469;51.114;13.914;2024-02-28T17:40:45;39.40;;;23.50;;
18677;SDS011;9469;51.114;13.914;2024-02-28T17:45:53;42.80;;;26.20;;
18677;SDS011;9469;51.114;13.914;2024-02-28T17:51:06;48.17;;;28.13;;
18677;SDS011;9469;51.114;13.914;2024-02-28T17:56:13;48.13;;;29.13;;
18677;SDS011;9469;51.114;13.914;2024-02-28T18:01:21;47.37;;;28.60;;
18677;SDS011;9469;51.114;13.914;2024-02-28T18:06:28;50.67;;;28.50;;
18677;SDS011;9469;51.114;13.914;2024-02-28T18:11:33;46.50;;;27.80;;
18677;SDS011;9469;51.114;13.914;2024-02-28T18:16:42;49.67;;;28.40;;
18677;SDS011;9469;51.114;13.914;2024-02-28T18:21:47;49.20;;;26.20;;
18677;SDS011;9469;51.114;13.914;2024-02-28T18:26:54;43.37;;;25.67;;
18677;SDS011;9469;51.114;13.914;2024-02-28T18:32:03;51.53;;;29.53;;
18677;SDS011;9469;51.114;13.914;2024-02-28T18:37:09;46.13;;;26.30;;
18677;SDS011;9469;51.114;13.914;2024-02-28T18:42:14;41.33;;;25.93;;
18677;SDS011;9469;51.114;13.914;2024-02-28T18:47:23;47.67;;;27.03;;
18677;SDS011;9469;51.114;13.914;2024-02-28T18:52:28;54.50;;;31.07;;
18677;SDS011;9469;51.114;13.914;2024-02-28T18:57:33;75.83;;;37.63;;
18677;SDS011;9469;51.114;13.914;2024-02-28T19:02:43;58.23;;;33.37;;
18677;SDS011;9469;51.114;13.914;2024-02-28T19:07:48;49.40;;;28.83;;
18677;SDS011;9469;51.114;13.914;2024-02-28T19:12:53;52.83;;;29.60;;
18677;SDS011;9469;51.114;13.914;2024-02-28T19:18:02;46.10;;;29.53;;
18677;SDS011;9469;51.114;13.914;2024-02-28T19:23:08;43.53;;;26.53;;
18677;SDS011;9469;51.114;13.914;2024-02-28T19:28:16;39.17;;;23.70;;
18677;SDS011;9469;51.114;13.914;2024-02-28T19:33:26;44.93;;;25.20;;
18677;SDS011;9469;51.114;13.914;2024-02-28T19:38:32;43.27;;;26.13;;
18677;SDS011;9469;51.114;13.914;2024-02-28T19:43:38;45.07;;;26.03;;
18677;SDS011;9469;51.114;13.914;2024-02-28T19:48:49;49.00;;;25.93;;
18677;SDS011;9469;51.114;13.914;2024-02-28T19:53:54;48.47;;;27.23;;
18677;SDS011;9469;51.114;13.914;2024-02-28T19:59:01;51.10;;;28.73;;
18677;SDS011;9469;51.114;13.914;2024-02-28T20:04:09;45.97;;;27.73;;
18677;SDS011;9469;51.114;13.914;2024-02-28T20:09:14;49.83;;;26.60;;
18677;SDS011;9469;51.114;13.914;2024-02-28T20:14:20;47.20;;;25.87;;
18677;SDS011;9469;51.114;13.914;2024-02-28T20:19:28;48.57;;;28.70;;
18677;SDS011;9469;51.114;13.914;2024-02-28T20:24:41;47.67;;;26.63;;
18677;SDS011;9469;51.114;13.914;2024-02-28T20:29:46;51.43;;;28.03;;
18677;SDS011;9469;51.114;13.914;2024-02-28T20:34:56;48.27;;;26.37;;
18677;SDS011;9469;51.114;13.914;2024-02-28T20:40:01;56.43;;;30.43;;
18677;SDS011;9469;51.114;13.914;2024-02-28T20:45:08;52.43;;;27.93;;
18677;SDS011;9469;51.114;13.914;2024-02-28T20:50:19;51.17;;;28.00;;
18677;SDS011;9469;51.114;13.914;2024-02-28T20:55:26;51.53;;;27.17;;
18677;SDS011;9469;51.114;13.914;2024-02-28T21:00:32;49.10;;;24.77;;
18677;SDS011;9469;51.114;13.914;2024-02-28T21:05:41;50.97;;;27.27;;
18677;SDS011;9469;51.114;13.914;2024-02-28T21:10:46;47.73;;;25.23;;
18677;SDS011;9469;51.114;13.914;2024-02-28T21:15:53;46.63;;;24.93;;
18677;SDS011;9469;51.114;13.914;2024-02-28T21:21:18;49.07;;;26.47;;
18677;SDS011;9469;51.114;13.914;2024-02-28T21:26:24;55.50;;;27.53;;
18677;SDS011;9469;51.114;13.914;2024-02-28T21:31:31;52.47;;;29.57;;
18677;SDS011;9469;51.114;13.914;2024-02-28T21:36:41;56.63;;;27.53;;
18677;SDS011;9469;51.114;13.914;2024-02-28T21:41:47;55.40;;;28.23;;
18677;SDS011;9469;51.114;13.914;2024-02-28T21:46:52;54.90;;;28.07;;
18677;SDS011;9469;51.114;13.914;2024-02-28T21:52:03;52.63;;;28.23;;
18677;SDS011;9469;51.114;13.914;2024-02-28T21:57:09;53.13;;;27.63;;
18677;SDS011;9469;51.114;13.914;2024-02-28T22:02:14;52.23;;;27.93;;
18677;SDS011;9469;51.114;13.914;2024-02-28T22:07:23;53.07;;;26.27;;
18677;SDS011;9469;51.114;13.914;2024-02-28T22:12:28;51.10;;;27.40;;
18677;SDS011;9469;51.114;13.914;2024-02-28T22:17:33;53.67;;;27.83;;
18677;SDS011;9469;51.114;13.914;2024-02-28T22:22:41;56.37;;;27.30;;
18677;SDS011;9469;51.114;13.914;2024-02-28T22:27:48;52.87;;;26.40;;
18677;SDS011;9469;51.114;13.914;2024-02-28T22:32:53;55.23;;;26.93;;
18677;SDS011;9469;51.114;13.914;2024-02-28T22:38:01;55.43;;;28.17;;
18677;SDS011;9469;51.114;13.914;2024-02-28T22:43:06;54.57;;;27.77;;
18677;SDS011;9469;51.114;13.914;2024-02-28T22:48:12;55.13;;;27.73;;
18677;SDS011;9469;51.114;13.914;2024-02-28T22:53:20;55.00;;;27.87;;
18677;SDS011;9469;51.114;13.914;2024-02-28T22:58:25;56.83;;;28.50;;
18677;SDS011;9469;51.114;13.914;2024-02-28T23:03:30;51.50;;;26.83;;
18677;SDS011;9469;51.114;13.914;2024-02-28T23:08:38;61.23;;;30.63;;
18677;SDS011;9469;51.114;13.914;2024-02-28T23:13:43;63.53;;;30.73;;
18677;SDS011;9469;51.114;13.914;2024-02-28T23:18:48;60.20;;;27.60;;
18677;SDS011;9469;51.114;13.914;2024-02-28T23:23:56;58.77;;;28.17;;
18677;SDS011;9469;51.114;13.914;2024-02-28T23:29:02;52.57;;;28.17;;
18677;SDS011;9469;51.114;13.914;2024-02-28T23:34:08;58.57;;;27.30;;
18677;SDS011;9469;51.114;13.914;2024-02-28T23:39:16;58.17;;;30.37;;
18677;SDS011;9469;51.114;13.914;2024-02-28T23:44:22;59.40;;;27.43;;
18677;SDS011;9469;51.114;13.914;2024-02-28T23:49:27;53.80;;;27.03;;
18677;SDS011;9469;51.114;13.914;2024-02-28T23:54:35;54.67;;;27.27;;
18677;SDS011;9469;51.114;13.914;2024-02-28T23:59:41;57.47;;;27.53;;
